Time;durP1;ratioP1;P1;durP2;ratioP2;P2;SDS_P1;SDS_P2;PMS_P1;PMS_P2;Temp;Humidity;BMP_temperature;BMP_pressure;BME280_temperature;BME280_humidity;BME280_pressure;Samples;Min_cycle;Max_cycle;Signal;HPM_P1;HPM_P2
2023/07/21 00:00:47;;;;;;;14.13;3.10;;;19.60;12.20;;;;;;5007800;28;20483;-63
2023/07/21 00:03:13;;;;;;;5.50;2.60;;;19.40;12.50;;;;;;5004098;28;21107;-63
2023/07/21 00:05:40;;;;;;;7.70;2.60;;;19.40;12.70;;;;;;5006500;28;20575;-63
2023/07/21 00:08:07;;;;;;;7.77;2.57;;;19.40;13.10;;;;;;5003789;28;20475;-63
2023/07/21 00:10:33;;;;;;;6.30;2.57;;;19.30;13.40;;;;;;5007220;28;20474;-63
2023/07/21 00:13:00;;;;;;;7.37;3.10;;;19.30;14.10;;;;;;5004501;28;20494;-63
2023/07/21 00:15:28;;;;;;;11.93;2.77;;;19.20;14.80;;;;;;5003236;28;20522;-64
2023/07/21 00:17:55;;;;;;;7.33;3.20;;;19.10;14.50;;;;;;5004452;28;20483;-63
2023/07/21 00:20:25;;;;;;;7.63;2.80;;;19.10;13.90;;;;;;4999830;28;20468;-64
2023/07/21 00:22:52;;;;;;;8.80;2.87;;;19.10;13.70;;;;;;5002629;28;20574;-63
2023/07/21 00:25:19;;;;;;;6.83;2.80;;;19.00;13.10;;;;;;5000619;28;21011;-63
2023/07/21 00:27:46;;;;;;;6.23;2.40;;;19.00;13.40;;;;;;5008490;28;20471;-63
2023/07/21 00:30:13;;;;;;;5.93;3.10;;;18.90;13.70;;;;;;5002208;28;20467;-63
2023/07/21 00:32:43;;;;;;;5.70;2.30;;;18.80;13.80;;;;;;4985272;28;20464;-63
2023/07/21 00:35:10;;;;;;;6.80;2.73;;;18.80;14.20;;;;;;4983894;28;20989;-64
2023/07/21 00:37:37;;;;;;;6.40;3.07;;;18.70;14.60;;;;;;4979300;28;20547;-63
2023/07/21 00:40:09;;;;;;;9.73;2.77;;;18.60;15.20;;;;;;4986681;28;20469;-63
2023/07/21 00:42:36;;;;;;;7.03;2.67;;;18.50;15.20;;;;;;4985763;28;20501;-63
2023/07/21 00:45:03;;;;;;;10.27;3.20;;;18.50;15.10;;;;;;4984988;28;20488;-63
2023/07/21 00:47:30;;;;;;;9.33;3.23;;;18.50;15.20;;;;;;4982083;28;20468;-62
2023/07/21 00:50:00;;;;;;;7.27;2.80;;;18.40;15.50;;;;;;4980718;28;20465;-62
2023/07/21 00:52:27;;;;;;;10.40;3.23;;;18.40;15.60;;;;;;4986033;28;20464;-62
2023/07/21 00:54:54;;;;;;;7.70;3.17;;;18.40;15.70;;;;;;4976740;28;21008;-62
2023/07/21 00:57:21;;;;;;;6.00;2.60;;;18.30;15.40;;;;;;4981507;28;20798;-62
2023/07/21 00:59:48;;;;;;;7.83;3.53;;;18.30;15.10;;;;;;4986740;28;20484;-62
2023/07/21 01:02:15;;;;;;;6.30;2.83;;;18.20;14.80;;;;;;4998684;28;20477;-62
2023/07/21 01:04:44;;;;;;;10.23;3.83;;;18.20;14.60;;;;;;5000696;28;20484;-63
2023/07/21 01:07:13;;;;;;;10.00;3.20;;;18.20;14.50;;;;;;5005452;28;20533;-62
2023/07/21 01:09:40;;;;;;;8.00;3.43;;;18.20;14.40;;;;;;5002104;28;20944;-62
2023/07/21 01:12:09;;;;;;;7.00;2.80;;;18.20;14.40;;;;;;5000985;28;20475;-62
2023/07/21 01:14:36;;;;;;;8.83;3.13;;;18.10;14.50;;;;;;5000491;28;20483;-62
2023/07/21 01:17:04;;;;;;;8.40;3.33;;;18.10;14.70;;;;;;5003852;28;20487;-62
2023/07/21 01:19:32;;;;;;;7.37;3.17;;;18.10;14.90;;;;;;5001779;28;20830;-62
2023/07/21 01:22:04;;;;;;;9.60;3.57;;;18.10;14.80;;;;;;5005947;28;20475;-64
2023/07/21 01:24:40;;;;;;;10.90;3.80;;;18.00;15.10;;;;;;4999999;28;20524;-62
2023/07/21 01:27:11;;;;;;;6.13;3.13;;;18.00;15.00;;;;;;5006422;28;20470;-62
2023/07/21 01:29:41;;;;;;;5.60;2.70;;;18.10;14.90;;;;;;5002557;28;20471;-61
2023/07/21 01:32:09;;;;;;;5.50;2.63;;;18.10;14.80;;;;;;5003303;28;21043;-62
2023/07/21 01:34:38;;;;;;;7.33;3.00;;;18.10;14.50;;;;;;5000943;28;20937;-63
2023/07/21 01:37:07;;;;;;;11.07;3.40;;;18.10;14.30;;;;;;5009641;28;20467;-62
2023/07/21 01:39:36;;;;;;;10.30;2.80;;;18.10;14.30;;;;;;5008656;28;20479;-63
2023/07/21 01:42:03;;;;;;;8.47;2.80;;;18.20;14.00;;;;;;5007681;28;20959;-62
2023/07/21 01:44:32;;;;;;;8.97;3.67;;;18.20;13.90;;;;;;5002011;28;20479;-62
2023/07/21 01:46:58;;;;;;;7.27;3.57;;;18.30;13.80;;;;;;5007485;28;20478;-62
2023/07/21 01:49:25;;;;;;;8.10;3.70;;;18.30;14.00;;;;;;5010360;28;21295;-62
2023/07/21 01:51:56;;;;;;;10.00;3.50;;;18.30;14.40;;;;;;5006375;28;20459;-62
2023/07/21 01:54:27;;;;;;;8.30;3.13;;;18.30;15.00;;;;;;5002341;28;20487;-62
2023/07/21 01:57:00;;;;;;;9.03;3.70;;;18.30;15.80;;;;;;5006644;28;20467;-62
2023/07/21 01:59:27;;;;;;;7.00;2.97;;;18.30;16.40;;;;;;5008465;28;20955;-62
2023/07/21 02:01:56;;;;;;;8.63;3.40;;;18.40;16.50;;;;;;5007194;28;20846;-63
2023/07/21 02:04:23;;;;;;;8.10;3.17;;;18.40;16.70;;;;;;5007171;28;20484;-62
2023/07/21 02:06:50;;;;;;;7.43;2.93;;;18.40;16.70;;;;;;5009177;28;20471;-62
2023/07/21 02:09:19;;;;;;;6.93;3.80;;;18.40;16.70;;;;;;5005394;28;20456;-62
2023/07/21 02:11:46;;;;;;;8.00;3.30;;;18.30;16.60;;;;;;5003222;28;20473;-62
2023/07/21 02:14:14;;;;;;;9.80;3.97;;;18.30;16.70;;;;;;5000953;28;20569;-62
2023/07/21 02:16:41;;;;;;;6.97;2.93;;;18.30;16.70;;;;;;5006728;28;20467;-62
2023/07/21 02:19:09;;;;;;;7.27;3.03;;;18.20;16.20;;;;;;5007640;28;20483;-62
2023/07/21 02:21:35;;;;;;;8.23;2.80;;;18.20;15.90;;;;;;5007743;28;20463;-62
2023/07/21 02:24:02;;;;;;;8.80;2.83;;;18.20;16.20;;;;;;5010260;28;20496;-62
2023/07/21 02:26:29;;;;;;;10.90;3.43;;;18.10;16.70;;;;;;5005648;28;20923;-62
2023/07/21 02:28:55;;;;;;;7.40;3.20;;;18.10;17.30;;;;;;5008560;28;20452;-62
2023/07/21 02:31:22;;;;;;;9.10;3.30;;;18.00;17.10;;;;;;5008637;28;20980;-62
2023/07/21 02:33:49;;;;;;;7.87;2.90;;;18.00;16.70;;;;;;5004302;28;20534;-62
2023/07/21 02:36:17;;;;;;;8.17;3.07;;;18.00;16.50;;;;;;5003921;28;20468;-62
2023/07/21 02:38:44;;;;;;;6.80;2.90;;;18.10;16.20;;;;;;5007178;28;20827;-62
2023/07/21 02:41:10;;;;;;;12.70;3.27;;;18.10;16.10;;;;;;5007206;28;20470;-62
2023/07/21 02:43:37;;;;;;;6.77;4.07;;;18.10;16.00;;;;;;5006118;28;21319;-62
2023/07/21 02:46:04;;;;;;;6.30;2.70;;;18.10;16.00;;;;;;5007695;28;20459;-62
2023/07/21 02:48:33;;;;;;;7.33;3.10;;;18.10;15.90;;;;;;5002592;28;20459;-62
2023/07/21 02:51:01;;;;;;;9.00;3.37;;;18.10;15.80;;;;;;5007848;28;20471;-62
2023/07/21 02:53:29;;;;;;;7.50;3.20;;;18.10;15.80;;;;;;5005153;28;21003;-62
2023/07/21 02:55:57;;;;;;;7.57;3.03;;;18.10;15.90;;;;;;5005225;28;20544;-62
2023/07/21 02:58:26;;;;;;;7.23;2.87;;;18.10;16.10;;;;;;5007827;28;20460;-62
2023/07/21 03:00:55;;;;;;;7.07;2.63;;;18.10;16.40;;;;;;5004825;28;20553;-62
2023/07/21 03:03:24;;;;;;;7.90;3.37;;;18.10;16.80;;;;;;5006820;28;20517;-62
2023/07/21 03:05:52;;;;;;;8.07;3.20;;;18.10;16.90;;;;;;5004865;28;20542;-62
2023/07/21 03:08:26;;;;;;;10.40;3.70;;;18.00;17.40;;;;;;5003445;28;20470;-62
2023/07/21 03:10:55;;;;;;;8.13;3.30;;;18.00;17.80;;;;;;5008797;28;20492;-62
2023/07/21 03:13:22;;;;;;;8.63;3.30;;;18.00;17.70;;;;;;5008579;28;20514;-62
2023/07/21 03:15:49;;;;;;;6.87;3.23;;;18.00;17.30;;;;;;5005872;28;20464;-63
2023/07/21 03:18:15;;;;;;;7.30;3.00;;;18.00;17.40;;;;;;5003134;28;20487;-62
2023/07/21 03:20:42;;;;;;;8.70;4.03;;;17.90;17.30;;;;;;5003399;28;20468;-62
2023/07/21 03:23:09;;;;;;;6.37;2.87;;;17.90;17.10;;;;;;5004093;28;20503;-63
2023/07/21 03:25:37;;;;;;;7.63;3.30;;;17.80;16.30;;;;;;5008350;28;20467;-62
2023/07/21 03:28:05;;;;;;;7.33;3.13;;;17.80;15.70;;;;;;5001623;28;20844;-62
2023/07/21 03:30:32;;;;;;;9.90;3.00;;;17.80;15.60;;;;;;4998310;28;20468;-62
2023/07/21 03:32:59;;;;;;;8.80;3.17;;;17.80;15.60;;;;;;4986679;28;20955;-62
2023/07/21 03:35:25;;;;;;;10.10;3.97;;;17.70;16.40;;;;;;4979833;28;20461;-62
2023/07/21 03:37:53;;;;;;;8.20;3.40;;;17.70;16.50;;;;;;4985057;28;20465;-62
2023/07/21 03:40:19;;;;;;;11.03;3.20;;;17.70;16.80;;;;;;4986171;28;20481;-62
2023/07/21 03:42:47;;;;;;;8.47;2.70;;;17.70;16.80;;;;;;4981389;28;20981;-62
2023/07/21 03:45:15;;;;;;;7.87;3.47;;;17.70;17.10;;;;;;4986333;28;20527;-62
2023/07/21 03:47:42;;;;;;;8.70;3.37;;;17.70;17.60;;;;;;4985016;28;20511;-62
2023/07/21 03:50:09;;;;;;;16.57;3.90;;;17.70;17.50;;;;;;4983819;28;20492;-62
2023/07/21 03:52:36;;;;;;;8.47;3.90;;;17.70;17.80;;;;;;4988168;28;20465;-62
2023/07/21 03:55:03;;;;;;;13.13;3.70;;;17.70;18.00;;;;;;4984995;28;20492;-62
2023/07/21 03:57:30;;;;;;;8.90;3.77;;;17.60;17.60;;;;;;4984413;28;20492;-63
2023/07/21 03:59:57;;;;;;;6.67;2.97;;;17.60;17.40;;;;;;4984221;28;20486;-62
2023/07/21 04:02:25;;;;;;;8.17;3.27;;;17.60;17.40;;;;;;4997685;28;20484;-63
2023/07/21 04:04:53;;;;;;;9.13;3.17;;;17.60;17.80;;;;;;4998997;28;21413;-64
2023/07/21 04:07:21;;;;;;;8.70;3.63;;;17.60;18.00;;;;;;5001229;28;20538;-63
2023/07/21 04:09:48;;;;;;;9.30;3.50;;;17.70;18.10;;;;;;4997416;28;20979;-64
2023/07/21 04:12:14;;;;;;;8.23;4.00;;;17.70;18.50;;;;;;4996201;28;20459;-64
2023/07/21 04:14:41;;;;;;;8.80;3.50;;;17.60;18.60;;;;;;5000679;28;20487;-64
2023/07/21 04:17:08;;;;;;;7.20;3.50;;;17.50;18.40;;;;;;5004855;28;20881;-64
2023/07/21 04:19:36;;;;;;;6.40;3.40;;;17.50;18.30;;;;;;5004906;28;20473;-63
2023/07/21 04:22:02;;;;;;;9.67;3.43;;;17.50;18.30;;;;;;4999926;28;20468;-63
2023/07/21 04:24:29;;;;;;;7.40;3.77;;;17.50;18.10;;;;;;5000158;28;20490;-64
2023/07/21 04:26:56;;;;;;;7.80;4.07;;;17.60;17.90;;;;;;5006434;28;20468;-63
2023/07/21 04:29:23;;;;;;;8.37;3.60;;;17.60;17.70;;;;;;5004726;28;20538;-63
2023/07/21 04:31:50;;;;;;;9.00;4.40;;;17.70;17.60;;;;;;5002418;28;20535;-63
2023/07/21 04:34:19;;;;;;;6.00;3.00;;;17.70;17.80;;;;;;5004863;28;20892;-64
2023/07/21 04:36:47;;;;;;;6.47;3.07;;;17.70;18.10;;;;;;5007040;28;20471;-64
2023/07/21 04:39:14;;;;;;;9.93;3.63;;;17.70;18.10;;;;;;5005327;28;20484;-64
2023/07/21 04:41:41;;;;;;;8.20;3.60;;;17.70;18.30;;;;;;5005823;28;20468;-63
2023/07/21 04:44:07;;;;;;;8.60;3.60;;;17.70;18.60;;;;;;5005948;28;20491;-63
2023/07/21 04:46:34;;;;;;;8.67;4.10;;;17.70;19.10;;;;;;5005196;28;21225;-63
2023/07/21 04:49:04;;;;;;;10.50;4.00;;;17.80;19.10;;;;;;4999824;28;20844;-62
2023/07/21 04:51:31;;;;;;;7.43;3.63;;;17.90;19.00;;;;;;5003968;28;20460;-62
2023/07/21 04:53:59;;;;;;;9.80;3.23;;;18.00;19.20;;;;;;5002971;28;20854;-63
2023/07/21 04:56:27;;;;;;;7.53;3.70;;;18.00;19.20;;;;;;5002299;28;20464;-62
2023/07/21 04:58:53;;;;;;;8.07;3.57;;;18.00;19.60;;;;;;5004985;28;20605;-63
2023/07/21 05:01:20;;;;;;;13.40;3.77;;;18.20;19.20;;;;;;5005100;28;20563;-63
2023/07/21 05:03:47;;;;;;;7.97;3.30;;;18.30;18.90;;;;;;5001156;28;21035;-63
2023/07/21 05:06:14;;;;;;;8.60;3.63;;;18.20;18.60;;;;;;5005283;28;21019;-64
2023/07/21 05:08:41;;;;;;;7.20;3.23;;;18.40;18.20;;;;;;5001451;28;20461;-61
2023/07/21 05:11:09;;;;;;;16.70;5.30;;;18.60;17.60;;;;;;5007719;28;20452;-62
2023/07/21 05:13:36;;;;;;;8.43;3.23;;;18.80;17.40;;;;;;5007123;28;20533;-62
2023/07/21 05:16:03;;;;;;;8.10;3.40;;;19.70;17.40;;;;;;5000871;28;20984;-62
2023/07/21 05:18:30;;;;;;;6.73;3.10;;;21.80;14.10;;;;;;5004128;28;20472;-64
2023/07/21 05:20:56;;;;;;;7.10;2.90;;;23.10;9.70;;;;;;5001847;28;20499;-64
2023/07/21 05:23:23;;;;;;;9.50;3.30;;;22.90;7.80;;;;;;5006409;28;20488;-65
2023/07/21 05:25:58;;;;;;;7.53;3.43;;;22.30;8.70;;;;;;4999415;28;20468;-62
2023/07/21 05:28:26;;;;;;;7.50;3.40;;;21.80;8.80;;;;;;5004897;28;20462;-65
2023/07/21 05:30:52;;;;;;;8.17;3.20;;;21.50;9.40;;;;;;5002505;28;20468;-65
2023/07/21 05:33:19;;;;;;;7.33;3.60;;;21.20;9.90;;;;;;5000712;28;20500;-65
2023/07/21 05:35:46;;;;;;;7.40;3.53;;;21.00;10.40;;;;;;5000318;28;20467;-63
2023/07/21 05:38:13;;;;;;;8.80;3.60;;;21.10;10.50;;;;;;5003679;28;20475;-62
2023/07/21 05:40:40;;;;;;;8.27;3.30;;;21.40;10.80;;;;;;5008231;28;20487;-63
2023/07/21 05:43:06;;;;;;;7.20;3.60;;;22.20;8.90;;;;;;5000216;28;20844;-63
2023/07/21 05:45:37;;;;;;;6.70;3.40;;;22.80;7.10;;;;;;5008018;28;20474;-63
2023/07/21 05:48:05;;;;;;;8.07;3.07;;;24.80;4.80;;;;;;4998238;28;20500;-64
2023/07/21 05:50:35;;;;;;;7.97;3.10;;;25.80;1.30;;;;;;5003218;28;21028;-65
2023/07/21 05:53:02;;;;;;;9.30;3.00;;;25.30;1.20;;;;;;4997244;28;20471;-64
2023/07/21 05:55:28;;;;;;;6.07;3.40;;;24.90;2.30;;;;;;5006761;28;20460;-63
2023/07/21 05:57:55;;;;;;;7.30;3.83;;;24.60;3.10;;;;;;5000724;28;20562;-64
2023/07/21 06:00:22;;;;;;;7.20;4.37;;;24.30;3.80;;;;;;5004991;28;20483;-63
2023/07/21 06:02:50;;;;;;;6.53;3.77;;;24.00;4.20;;;;;;5001306;28;20898;-63
2023/07/21 06:05:17;;;;;;;7.57;3.50;;;23.60;4.80;;;;;;5005520;28;20487;-64
2023/07/21 06:07:44;;;;;;;10.63;3.90;;;23.30;5.00;;;;;;5002954;28;20957;-63
2023/07/21 06:10:11;;;;;;;11.17;4.40;;;23.00;4.50;;;;;;5004221;28;20514;-63
2023/07/21 06:12:38;;;;;;;8.73;3.83;;;22.80;5.20;;;;;;4999630;28;20478;-63
2023/07/21 06:15:07;;;;;;;11.27;3.90;;;22.50;6.20;;;;;;5003344;28;20582;-63
2023/07/21 06:17:33;;;;;;;8.77;4.47;;;22.40;6.50;;;;;;5004376;28;20463;-63
2023/07/21 06:20:01;;;;;;;8.60;3.43;;;22.30;5.80;;;;;;4998466;28;20480;-63
2023/07/21 06:22:29;;;;;;;7.90;3.90;;;22.30;6.00;;;;;;4997694;28;20647;-62
2023/07/21 06:24:56;;;;;;;7.30;3.27;;;22.40;6.70;;;;;;5002256;28;20539;-62
2023/07/21 06:27:22;;;;;;;6.97;3.40;;;22.50;7.40;;;;;;5001284;28;20487;-63
2023/07/21 06:29:49;;;;;;;7.70;3.40;;;22.80;7.40;;;;;;5003422;28;20459;-63
2023/07/21 06:32:16;;;;;;;6.63;2.97;;;23.10;6.50;;;;;;5006115;28;21010;-61
2023/07/21 06:34:43;;;;;;;8.07;3.30;;;23.30;5.70;;;;;;5002769;28;20518;-62
2023/07/21 06:37:11;;;;;;;8.87;3.83;;;23.50;4.90;;;;;;5008153;28;20538;-65
2023/07/21 06:39:37;;;;;;;10.37;3.77;;;26.10;2.00;;;;;;4995937;28;20470;-64
2023/07/21 06:42:05;;;;;;;7.57;2.97;;;29.10;1.00;;;;;;5005679;28;20467;-63
2023/07/21 06:44:34;;;;;;;6.73;2.60;;;32.40;1.00;;;;;;5002913;28;20492;-63
2023/07/21 06:47:00;;;;;;;9.67;3.10;;;34.20;1.00;;;;;;5002982;28;20551;-65
2023/07/21 06:49:27;;;;;;;7.47;3.17;;;34.40;1.00;;;;;;5005647;28;20887;-64
2023/07/21 06:51:54;;;;;;;5.90;2.37;;;36.20;1.00;;;;;;5001993;28;20470;-63
2023/07/21 06:54:23;;;;;;;6.80;2.37;;;38.40;1.00;;;;;;5003866;28;20487;-63
2023/07/21 06:56:50;;;;;;;5.33;2.67;;;40.10;1.00;;;;;;5007771;28;20525;-65
2023/07/21 06:59:17;;;;;;;5.73;2.80;;;39.00;1.00;;;;;;5002861;28;20475;-63
2023/07/21 07:01:44;;;;;;;5.17;2.13;;;37.10;1.00;;;;;;4990898;28;20495;-63
2023/07/21 07:04:10;;;;;;;7.73;2.60;;;36.90;1.00;;;;;;4978665;28;20484;-63
2023/07/21 07:06:37;;;;;;;11.17;2.40;;;37.10;1.00;;;;;;4983437;28;20980;-63
2023/07/21 07:09:04;;;;;;;8.40;3.33;;;37.80;1.00;;;;;;4980021;28;20465;-63
2023/07/21 07:11:32;;;;;;;6.90;2.40;;;37.50;1.00;;;;;;4989020;28;20580;-63
2023/07/21 07:13:59;;;;;;;5.40;2.63;;;37.20;1.00;;;;;;4978627;28;20897;-63
2023/07/21 07:16:26;;;;;;;6.47;2.60;;;37.70;1.00;;;;;;4980391;28;20468;-63
2023/07/21 07:18:52;;;;;;;6.13;2.80;;;38.10;1.00;;;;;;4982772;28;20476;-63
2023/07/21 07:21:20;;;;;;;8.10;2.77;;;38.00;1.00;;;;;;4981307;28;20491;-64
2023/07/21 07:23:47;;;;;;;4.77;2.03;;;39.20;1.00;;;;;;4987436;28;20488;-64
2023/07/21 07:26:14;;;;;;;5.90;2.90;;;41.60;1.00;;;;;;4977455;28;20505;-64
2023/07/21 07:28:42;;;;;;;5.60;2.30;;;43.80;1.00;;;;;;4980401;28;20471;-63
2023/07/21 07:31:08;;;;;;;10.60;3.20;;;43.70;1.00;;;;;;4990788;28;20480;-63
2023/07/21 07:33:35;;;;;;;6.70;2.57;;;41.90;1.00;;;;;;4999544;28;20501;-65
2023/07/21 07:36:02;;;;;;;6.47;2.40;;;40.00;1.00;;;;;;5004166;28;20467;-64
2023/07/21 07:38:30;;;;;;;4.47;2.07;;;38.40;1.00;;;;;;5008281;28;20464;-64
2023/07/21 07:41:03;;;;;;;7.00;2.47;;;36.90;1.00;;;;;;5005678;28;20514;-65
2023/07/21 07:43:29;;;;;;;8.67;2.70;;;35.80;1.00;;;;;;5002416;28;20494;-65
2023/07/21 07:45:59;;;;;;;7.40;2.83;;;34.90;1.00;;;;;;5006548;28;20456;-64
2023/07/21 07:48:26;;;;;;;7.80;3.00;;;33.90;1.00;;;;;;5001657;28;20460;-64
2023/07/21 07:50:53;;;;;;;5.60;2.40;;;33.30;1.00;;;;;;5002600;28;20456;-65
2023/07/21 07:53:21;;;;;;;5.93;2.27;;;33.00;1.00;;;;;;5002784;28;20497;-64
2023/07/21 07:55:48;;;;;;;8.03;2.50;;;32.50;1.00;;;;;;5002617;28;20968;-63
2023/07/21 07:58:15;;;;;;;6.60;2.90;;;31.80;1.00;;;;;;5004393;28;20468;-63
2023/07/21 08:00:43;;;;;;;6.90;3.03;;;31.60;1.00;;;;;;5006791;28;21180;-63
2023/07/21 08:03:11;;;;;;;6.97;2.80;;;32.30;1.00;;;;;;4993509;28;20465;-63
2023/07/21 08:05:40;;;;;;;5.13;2.37;;;32.20;1.00;;;;;;5003424;28;20503;-64
2023/07/21 08:08:07;;;;;;;8.37;2.77;;;32.00;1.00;;;;;;5008519;28;20487;-64
2023/07/21 08:10:35;;;;;;;5.60;2.23;;;31.90;1.00;;;;;;5000018;28;20874;-63
2023/07/21 08:13:04;;;;;;;6.17;2.57;;;31.80;1.00;;;;;;4999089;28;20464;-65
2023/07/21 08:15:31;;;;;;;9.53;3.20;;;31.60;1.00;;;;;;5005261;28;20861;-63
2023/07/21 08:17:58;;;;;;;5.60;2.10;;;31.20;1.00;;;;;;5003339;28;20467;-64
2023/07/21 08:20:26;;;;;;;4.63;2.00;;;31.10;1.00;;;;;;5006483;28;20490;-64
2023/07/21 08:22:53;;;;;;;6.47;2.70;;;31.20;1.00;;;;;;5000830;28;20519;-65
2023/07/21 08:25:20;;;;;;;5.40;2.30;;;32.40;1.00;;;;;;5003765;28;20495;-64
2023/07/21 08:27:47;;;;;;;5.53;2.43;;;34.10;1.00;;;;;;5004308;28;20939;-64
2023/07/21 08:30:15;;;;;;;6.80;2.50;;;34.40;1.00;;;;;;4999057;28;20912;-64
2023/07/21 08:32:43;;;;;;;6.77;2.47;;;34.30;1.00;;;;;;5007557;28;20470;-62
2023/07/21 08:35:10;;;;;;;4.77;2.50;;;34.20;1.00;;;;;;5006861;28;20479;-64
2023/07/21 08:37:39;;;;;;;6.33;2.10;;;33.80;1.00;;;;;;5006703;28;20472;-64
2023/07/21 08:40:06;;;;;;;6.57;2.03;;;33.20;1.00;;;;;;5002187;28;20496;-63
2023/07/21 08:42:35;;;;;;;5.70;2.13;;;33.00;1.00;;;;;;5002160;28;20464;-63
2023/07/21 08:45:04;;;;;;;5.97;2.10;;;32.90;1.00;;;;;;4999020;28;20534;-63
2023/07/21 08:47:31;;;;;;;4.70;2.00;;;33.10;1.00;;;;;;5010604;28;20479;-63
2023/07/21 08:49:59;;;;;;;4.70;1.63;;;33.40;1.00;;;;;;5002733;28;20547;-65
2023/07/21 08:52:26;;;;;;;5.63;2.10;;;34.10;1.00;;;;;;5007052;28;20539;-64
2023/07/21 08:54:54;;;;;;;5.87;2.70;;;35.20;1.00;;;;;;5002897;28;20499;-64
2023/07/21 08:57:21;;;;;;;6.57;2.47;;;36.50;1.00;;;;;;5004799;28;20498;-64
2023/07/21 08:59:49;;;;;;;5.93;2.10;;;38.20;1.00;;;;;;5005870;28;20468;-65
2023/07/21 09:02:15;;;;;;;5.47;2.23;;;40.50;1.00;;;;;;5009196;28;20488;-65
2023/07/21 09:04:44;;;;;;;5.30;2.00;;;42.50;1.00;;;;;;5009889;28;20483;-66
2023/07/21 09:07:12;;;;;;;4.50;1.70;;;44.90;1.00;;;;;;5011366;28;20468;-67
2023/07/21 09:09:38;;;;;;;4.20;1.60;;;47.10;1.00;;;;;;5011027;28;20504;-66
2023/07/21 09:12:08;;;;;;;5.27;1.70;;;48.90;1.00;;;;;;5005192;28;20464;-66
2023/07/21 09:14:36;;;;;;;4.67;1.70;;;50.40;1.00;;;;;;5004024;28;20521;-66
2023/07/21 09:17:04;;;;;;;4.40;1.53;;;51.70;1.00;;;;;;5003729;28;20459;-66
2023/07/21 09:19:31;;;;;;;3.60;1.47;;;52.70;1.00;;;;;;5006638;28;20470;-66
2023/07/21 09:21:57;;;;;;;4.00;1.30;;;53.40;1.00;;;;;;5004747;28;20487;-65
2023/07/21 09:24:24;;;;;;;3.97;1.50;;;54.10;1.00;;;;;;5001954;28;20492;-66
2023/07/21 09:26:51;;;;;;;3.50;1.40;;;54.20;1.00;;;;;;5001949;28;20475;-67
2023/07/21 09:29:19;;;;;;;4.73;1.40;;;54.70;1.00;;;;;;4998930;28;20455;-68
2023/07/21 09:31:47;;;;;;;3.43;1.37;;;55.10;1.00;;;;;;5004514;28;20470;-64
2023/07/21 09:34:14;;;;;;;6.63;1.97;;;55.40;1.00;;;;;;4998661;28;20491;-64
2023/07/21 09:36:45;;;;;;;4.43;1.47;;;55.60;1.00;;;;;;5005736;28;20469;-66
2023/07/21 09:39:15;;;;;;;3.50;1.33;;;55.70;1.00;;;;;;5001152;28;20475;-65
2023/07/21 09:41:43;;;;;;;5.13;1.83;;;55.80;1.00;;;;;;5003520;28;20479;-64
2023/07/21 09:44:11;;;;;;;5.23;1.80;;;55.90;1.00;;;;;;5001654;28;20486;-64
2023/07/21 09:46:40;;;;;;;4.33;1.37;;;55.80;1.00;;;;;;5003456;28;20474;-65
2023/07/21 09:49:06;;;;;;;7.20;1.70;;;54.60;1.00;;;;;;5002321;28;20471;-65
2023/07/21 09:51:38;;;;;;;8.40;2.00;;;53.00;1.00;;;;;;5004668;28;20463;-65
2023/07/21 09:54:07;;;;;;;5.50;1.57;;;51.00;1.00;;;;;;5002109;28;21028;-65
2023/07/21 09:56:37;;;;;;;6.20;1.73;;;49.10;1.00;;;;;;5005092;28;20474;-64
2023/07/21 09:59:09;;;;;;;3.90;1.70;;;47.40;1.00;;;;;;4999622;28;20468;-64
2023/07/21 10:01:37;;;;;;;5.50;1.60;;;45.90;1.00;;;;;;5006889;28;20471;-65
2023/07/21 10:04:06;;;;;;;3.90;1.50;;;44.50;1.00;;;;;;5006318;28;20574;-64
2023/07/21 10:06:33;;;;;;;4.83;1.73;;;43.10;1.00;;;;;;5001569;28;20476;-64
2023/07/21 10:09:00;;;;;;;6.03;1.97;;;41.80;1.00;;;;;;5005155;28;20808;-64
2023/07/21 10:11:28;;;;;;;5.27;1.60;;;40.40;1.00;;;;;;5007155;28;21006;-64
2023/07/21 10:13:55;;;;;;;7.13;1.83;;;39.20;1.00;;;;;;4999015;28;20483;-64
2023/07/21 10:16:22;;;;;;;4.97;1.93;;;38.20;1.00;;;;;;5004988;28;21234;-64
2023/07/21 10:19:10;;;;;;;5.23;1.73;;;37.40;1.00;;;;;;5007620;28;20987;-64
2023/07/21 10:21:49;;;;;;;8.20;2.10;;;36.60;1.00;;;;;;5005326;28;20491;-63
2023/07/21 10:24:23;;;;;;;5.20;1.67;;;35.90;1.00;;;;;;5004912;28;20637;-64
2023/07/21 10:26:54;;;;;;;6.00;1.70;;;35.30;1.00;;;;;;5000848;28;20554;-64
2023/07/21 10:29:20;;;;;;;6.77;1.70;;;34.80;1.00;;;;;;5002424;28;20472;-63
2023/07/21 10:31:54;;;;;;;5.47;2.27;;;34.30;1.00;;;;;;5005713;28;20820;-64
2023/07/21 10:34:26;;;;;;;6.67;2.20;;;34.00;1.00;;;;;;4999110;28;20483;-65
2023/07/21 10:36:58;;;;;;;4.40;1.90;;;33.70;1.00;;;;;;4996229;28;20873;-65
2023/07/21 10:39:27;;;;;;;5.13;1.70;;;33.70;1.00;;;;;;5004317;28;20459;-65
2023/07/21 10:41:55;;;;;;;6.13;2.33;;;33.50;1.00;;;;;;5002929;28;20858;-64
2023/07/21 10:44:23;;;;;;;6.80;2.40;;;33.40;1.00;;;;;;5007166;28;20488;-64
2023/07/21 10:46:51;;;;;;;4.77;2.00;;;33.30;1.00;;;;;;5003825;28;20548;-65
2023/07/21 10:49:20;;;;;;;5.00;2.10;;;33.30;1.00;;;;;;5005893;28;20471;-65
2023/07/21 10:51:49;;;;;;;4.97;2.00;;;33.30;1.00;;;;;;5004716;28;20463;-65
2023/07/21 10:54:17;;;;;;;4.60;1.90;;;33.30;1.00;;;;;;5008170;28;20569;-65
2023/07/21 10:56:46;;;;;;;5.73;2.20;;;33.20;1.00;;;;;;4995687;28;20468;-65
2023/07/21 10:59:14;;;;;;;4.70;1.87;;;32.90;1.00;;;;;;5008603;28;20472;-65
2023/07/21 11:01:41;;;;;;;5.80;2.30;;;32.60;1.00;;;;;;4999838;28;20484;-65
2023/07/21 11:04:08;;;;;;;4.27;1.90;;;32.30;1.00;;;;;;5004809;28;20511;-65
2023/07/21 11:06:39;;;;;;;5.40;3.00;;;32.00;1.00;;;;;;5000196;28;20469;-65
2023/07/21 11:09:11;;;;;;;5.00;2.30;;;31.70;1.00;;;;;;5006431;28;20594;-64
2023/07/21 11:11:39;;;;;;;5.57;2.00;;;31.50;1.00;;;;;;5001465;28;20551;-63
2023/07/21 11:14:09;;;;;;;6.00;2.43;;;31.40;1.00;;;;;;5004147;28;20602;-63
2023/07/21 11:16:41;;;;;;;4.87;2.20;;;31.40;1.00;;;;;;5008217;28;20566;-63
2023/07/21 11:19:08;;;;;;;7.43;1.90;;;31.40;1.00;;;;;;4995669;28;20493;-63
2023/07/21 11:21:35;;;;;;;7.77;2.13;;;31.40;1.00;;;;;;5004889;28;20920;-63
2023/07/21 11:24:03;;;;;;;5.67;1.90;;;31.30;1.00;;;;;;5000061;28;21021;-63
2023/07/21 11:26:31;;;;;;;5.60;1.70;;;31.40;1.00;;;;;;5006333;28;20472;-63
2023/07/21 11:29:00;;;;;;;5.20;2.30;;;31.50;1.00;;;;;;5000455;28;20495;-63
2023/07/21 11:31:31;;;;;;;4.43;1.70;;;31.50;1.00;;;;;;5002190;28;21147;-64
2023/07/21 11:33:58;;;;;;;4.60;1.93;;;31.50;1.00;;;;;;5005884;28;20488;-63
2023/07/21 11:36:28;;;;;;;5.80;2.30;;;31.60;1.00;;;;;;5002691;28;20468;-62
2023/07/21 11:38:59;;;;;;;4.90;2.00;;;31.50;1.00;;;;;;5003350;28;20471;-63
2023/07/21 11:41:48;;;;;;;7.83;2.43;;;31.40;1.00;;;;;;5001765;28;20551;-63
2023/07/21 11:44:19;;;;;;;5.77;2.33;;;31.20;1.00;;;;;;5009186;28;21059;-63
2023/07/21 11:46:54;;;;;;;8.37;2.27;;;31.10;1.00;;;;;;5007104;28;20459;-63
2023/07/21 11:49:22;;;;;;;6.13;2.13;;;30.90;1.00;;;;;;5008458;28;20495;-62
2023/07/21 11:51:51;;;;;;;5.00;1.90;;;30.70;1.00;;;;;;5005297;28;20475;-62
2023/07/21 11:54:21;;;;;;;8.67;1.90;;;30.60;1.00;;;;;;5002839;28;20487;-62
2023/07/21 11:56:50;;;;;;;4.63;2.10;;;30.30;1.00;;;;;;4999539;28;20482;-62
2023/07/21 11:59:17;;;;;;;6.40;2.17;;;30.10;1.00;;;;;;4999186;28;20478;-63
2023/07/21 12:01:45;;;;;;;4.80;2.27;;;29.90;1.00;;;;;;4997569;28;20488;-62
2023/07/21 12:04:12;;;;;;;6.23;2.30;;;29.80;1.00;;;;;;5001896;28;20491;-63
2023/07/21 12:06:39;;;;;;;9.67;2.50;;;29.60;1.00;;;;;;5002558;28;20459;-63
2023/07/21 12:09:07;;;;;;;4.93;2.17;;;29.50;1.00;;;;;;5003562;28;20476;-63
2023/07/21 12:11:34;;;;;;;7.10;2.40;;;29.30;1.00;;;;;;5003252;28;20479;-62
2023/07/21 12:14:02;;;;;;;5.93;2.67;;;29.20;1.00;;;;;;5001414;28;21081;-62
2023/07/21 12:16:29;;;;;;;8.07;2.67;;;29.20;1.00;;;;;;5000357;28;20480;-65
2023/07/21 12:18:56;;;;;;;5.97;2.40;;;29.20;1.00;;;;;;5004643;28;20494;-64
2023/07/21 12:21:24;;;;;;;6.27;2.57;;;29.30;1.00;;;;;;5002957;28;20464;-63
2023/07/21 12:23:51;;;;;;;4.90;2.33;;;29.40;1.00;;;;;;5005046;28;20520;-63
2023/07/21 12:26:18;;;;;;;7.97;2.40;;;29.40;1.00;;;;;;5002456;28;20471;-65
2023/07/21 12:28:48;;;;;;;7.63;2.10;;;29.30;1.00;;;;;;5003312;28;20995;-64
2023/07/21 12:31:16;;;;;;;5.50;2.80;;;29.10;1.00;;;;;;5005736;28;20627;-64
2023/07/21 12:33:44;;;;;;;6.10;2.30;;;29.10;1.00;;;;;;4997120;28;20492;-64
2023/07/21 12:36:11;;;;;;;6.00;2.40;;;29.00;1.00;;;;;;5000418;28;20467;-63
2023/07/21 12:38:38;;;;;;;6.40;2.53;;;29.00;1.00;;;;;;5005053;28;20468;-62
2023/07/21 12:41:06;;;;;;;6.73;2.00;;;29.10;1.00;;;;;;4996397;28;20841;-62
2023/07/21 12:43:33;;;;;;;7.43;2.30;;;29.10;1.00;;;;;;4998603;28;20487;-62
2023/07/21 12:46:00;;;;;;;5.10;2.20;;;29.10;1.00;;;;;;5007379;28;20468;-63
2023/07/21 12:48:30;;;;;;;8.37;2.70;;;29.00;1.00;;;;;;5006996;28;20472;-63
2023/07/21 12:50:57;;;;;;;10.20;2.93;;;28.90;1.00;;;;;;4999490;28;20504;-63
2023/07/21 12:53:23;;;;;;;6.93;2.37;;;28.80;1.00;;;;;;5007559;28;20487;-63
2023/07/21 12:55:50;;;;;;;6.40;2.30;;;28.70;1.00;;;;;;5003130;28;20992;-65